sensor_id;sensor_type;location;lat;lon;timestamp;temperature;humidity
17200;DHT22;8716;52.268;20.968;2023-02-23T00:02:37;1.40;99.90
17200;DHT22;8716;52.268;20.968;2023-02-23T00:05:06;1.60;99.90
17200;DHT22;8716;52.268;20.968;2023-02-23T00:07:35;1.60;99.90
17200;DHT22;8716;52.268;20.968;2023-02-23T00:10:03;1.50;99.90
17200;DHT22;8716;52.268;20.968;2023-02-23T00:12:33;1.40;99.90
17200;DHT22;8716;52.268;20.968;2023-02-23T00:15:01;1.30;99.90
17200;DHT22;8716;52.268;20.968;2023-02-23T00:17:30;1.40;99.90
17200;DHT22;8716;52.268;20.968;2023-02-23T00:19:59;1.30;99.90
17200;DHT22;8716;52.268;20.968;2023-02-23T00:22:33;1.30;99.90
17200;DHT22;8716;52.268;20.968;2023-02-23T00:25:02;1.20;99.90
17200;DHT22;8716;52.268;20.968;2023-02-23T00:27:36;1.10;99.90
17200;DHT22;8716;52.268;20.968;2023-02-23T00:30:11;1.10;99.90
17200;DHT22;8716;52.268;20.968;2023-02-23T00:32:39;1.00;99.90
17200;DHT22;8716;52.268;20.968;2023-02-23T00:35:08;1.00;99.90
17200;DHT22;8716;52.268;20.968;2023-02-23T00:37:43;1.00;99.90
17200;DHT22;8716;52.268;20.968;2023-02-23T00:40:16;1.00;99.90
17200;DHT22;8716;52.268;20.968;2023-02-23T00:42:48;1.00;99.90
17200;DHT22;8716;52.268;20.968;2023-02-23T00:45:20;1.00;99.90
17200;DHT22;8716;52.268;20.968;2023-02-23T00:47:49;1.00;99.90
17200;DHT22;8716;52.268;20.968;2023-02-23T00:50:17;1.00;99.90
17200;DHT22;8716;52.268;20.968;2023-02-23T00:52:46;1.00;99.90
17200;DHT22;8716;52.268;20.968;2023-02-23T00:55:14;0.90;99.90
17200;DHT22;8716;52.268;20.968;2023-02-23T00:57:43;0.90;99.90
17200;DHT22;8716;52.268;20.968;2023-02-23T01:00:13;0.90;99.90
17200;DHT22;8716;52.268;20.968;2023-02-23T01:02:47;0.90;99.90
17200;DHT22;8716;52.268;20.968;2023-02-23T01:05:15;1.00;99.90
17200;DHT22;8716;52.268;20.968;2023-02-23T01:07:43;0.90;99.90
17200;DHT22;8716;52.268;20.968;2023-02-23T01:10:13;0.90;99.90
17200;DHT22;8716;52.268;20.968;2023-02-23T01:12:48;0.90;99.90
17200;DHT22;8716;52.268;20.968;2023-02-23T01:15:19;0.90;99.90
17200;DHT22;8716;52.268;20.968;2023-02-23T01:17:48;0.80;99.90
17200;DHT22;8716;52.268;20.968;2023-02-23T01:20:16;0.80;99.90
17200;DHT22;8716;52.268;20.968;2023-02-23T01:22:47;0.80;99.90
17200;DHT22;8716;52.268;20.968;2023-02-23T01:25:17;0.90;99.90
17200;DHT22;8716;52.268;20.968;2023-02-23T01:27:45;0.80;99.90
17200;DHT22;8716;52.268;20.968;2023-02-23T01:30:14;0.80;99.90
17200;DHT22;8716;52.268;20.968;2023-02-23T01:32:44;0.80;99.90
17200;DHT22;8716;52.268;20.968;2023-02-23T01:35:12;0.90;99.90
17200;DHT22;8716;52.268;20.968;2023-02-23T01:37:42;0.80;99.90
17200;DHT22;8716;52.268;20.968;2023-02-23T01:40:13;0.80;99.90
17200;DHT22;8716;52.268;20.968;2023-02-23T01:42:44;0.80;99.90
17200;DHT22;8716;52.268;20.968;2023-02-23T01:45:25;0.80;99.90
17200;DHT22;8716;52.268;20.968;2023-02-23T01:47:58;0.80;99.90
17200;DHT22;8716;52.268;20.968;2023-02-23T01:50:32;0.70;99.90
17200;DHT22;8716;52.268;20.968;2023-02-23T01:53:04;0.80;99.90
17200;DHT22;8716;52.268;20.968;2023-02-23T01:55:33;0.80;99.90
17200;DHT22;8716;52.268;20.968;2023-02-23T01:58:08;0.90;99.90
17200;DHT22;8716;52.268;20.968;2023-02-23T02:00:48;0.90;99.90
17200;DHT22;8716;52.268;20.968;2023-02-23T02:03:25;1.00;99.90
17200;DHT22;8716;52.268;20.968;2023-02-23T02:05:54;0.90;99.90
17200;DHT22;8716;52.268;20.968;2023-02-23T02:08:24;0.80;99.90
17200;DHT22;8716;52.268;20.968;2023-02-23T02:10:53;0.80;99.90
17200;DHT22;8716;52.268;20.968;2023-02-23T02:13:27;0.70;99.90
17200;DHT22;8716;52.268;20.968;2023-02-23T02:16:36;0.80;99.90
17200;DHT22;8716;52.268;20.968;2023-02-23T02:22:36;0.80;99.90
17200;DHT22;8716;52.268;20.968;2023-02-23T02:25:30;0.80;99.90
17200;DHT22;8716;52.268;20.968;2023-02-23T02:28:28;0.70;99.90
17200;DHT22;8716;52.268;20.968;2023-02-23T02:31:24;0.60;99.90
17200;DHT22;8716;52.268;20.968;2023-02-23T02:37:23;0.70;99.90
17200;DHT22;8716;52.268;20.968;2023-02-23T02:39:57;0.60;99.90
17200;DHT22;8716;52.268;20.968;2023-02-23T02:42:55;0.60;99.90
17200;DHT22;8716;52.268;20.968;2023-02-23T02:45:31;0.60;99.90
17200;DHT22;8716;52.268;20.968;2023-02-23T02:48:05;0.60;99.90
17200;DHT22;8716;52.268;20.968;2023-02-23T02:50:42;0.60;99.90
17200;DHT22;8716;52.268;20.968;2023-02-23T02:53:24;0.70;99.90
17200;DHT22;8716;52.268;20.968;2023-02-23T02:55:54;0.60;99.90
17200;DHT22;8716;52.268;20.968;2023-02-23T02:58:26;0.60;99.90
17200;DHT22;8716;52.268;20.968;2023-02-23T03:01:05;0.60;99.90
17200;DHT22;8716;52.268;20.968;2023-02-23T03:03:51;0.70;99.90
17200;DHT22;8716;52.268;20.968;2023-02-23T03:06:44;0.70;99.90
17200;DHT22;8716;52.268;20.968;2023-02-23T03:09:37;0.70;99.90
17200;DHT22;8716;52.268;20.968;2023-02-23T03:12:32;0.70;99.90
17200;DHT22;8716;52.268;20.968;2023-02-23T03:15:32;0.70;99.90
17200;DHT22;8716;52.268;20.968;2023-02-23T03:18:39;0.70;99.90
17200;DHT22;8716;52.268;20.968;2023-02-23T03:21:34;0.70;99.90
17200;DHT22;8716;52.268;20.968;2023-02-23T03:24:27;0.70;99.90
17200;DHT22;8716;52.268;20.968;2023-02-23T03:27:21;0.70;99.90
17200;DHT22;8716;52.268;20.968;2023-02-23T03:30:14;0.80;99.90
17200;DHT22;8716;52.268;20.968;2023-02-23T03:33:10;0.70;99.90
17200;DHT22;8716;52.268;20.968;2023-02-23T03:36:00;0.70;99.90
17200;DHT22;8716;52.268;20.968;2023-02-23T03:38:53;0.70;99.90
17200;DHT22;8716;52.268;20.968;2023-02-23T03:41:42;0.70;99.90
17200;DHT22;8716;52.268;20.968;2023-02-23T03:44:32;0.70;99.90
17200;DHT22;8716;52.268;20.968;2023-02-23T03:47:22;0.70;99.90
17200;DHT22;8716;52.268;20.968;2023-02-23T03:50:14;0.70;99.90
17200;DHT22;8716;52.268;20.968;2023-02-23T03:53:01;0.70;99.90
17200;DHT22;8716;52.268;20.968;2023-02-23T03:55:53;0.70;99.90
17200;DHT22;8716;52.268;20.968;2023-02-23T03:58:43;0.70;99.90
17200;DHT22;8716;52.268;20.968;2023-02-23T04:01:33;0.70;99.90
17200;DHT22;8716;52.268;20.968;2023-02-23T04:04:23;0.70;99.90
17200;DHT22;8716;52.268;20.968;2023-02-23T04:07:13;0.70;99.90
17200;DHT22;8716;52.268;20.968;2023-02-23T04:10:01;0.90;99.90
17200;DHT22;8716;52.268;20.968;2023-02-23T04:12:53;0.90;99.90
17200;DHT22;8716;52.268;20.968;2023-02-23T04:15:43;0.90;99.90
17200;DHT22;8716;52.268;20.968;2023-02-23T04:18:14;0.90;99.90
17200;DHT22;8716;52.268;20.968;2023-02-23T04:20:43;0.90;99.90
17200;DHT22;8716;52.268;20.968;2023-02-23T04:23:11;0.90;99.90
17200;DHT22;8716;52.268;20.968;2023-02-23T04:25:39;1.10;99.90
17200;DHT22;8716;52.268;20.968;2023-02-23T04:28:07;1.00;99.90
17200;DHT22;8716;52.268;20.968;2023-02-23T04:30:38;1.00;99.90
17200;DHT22;8716;52.268;20.968;2023-02-23T04:33:08;1.10;99.90
17200;DHT22;8716;52.268;20.968;2023-02-23T04:35:38;1.10;99.90
17200;DHT22;8716;52.268;20.968;2023-02-23T04:38:06;1.10;99.90
17200;DHT22;8716;52.268;20.968;2023-02-23T04:40:35;1.10;99.90
17200;DHT22;8716;52.268;20.968;2023-02-23T04:43:03;1.10;99.90
17200;DHT22;8716;52.268;20.968;2023-02-23T04:45:32;1.10;99.90
17200;DHT22;8716;52.268;20.968;2023-02-23T04:48:00;1.10;99.90
17200;DHT22;8716;52.268;20.968;2023-02-23T04:50:29;1.00;99.90
17200;DHT22;8716;52.268;20.968;2023-02-23T04:52:59;1.10;99.90
17200;DHT22;8716;52.268;20.968;2023-02-23T04:55:28;1.10;99.90
17200;DHT22;8716;52.268;20.968;2023-02-23T04:57:57;1.10;99.90
17200;DHT22;8716;52.268;20.968;2023-02-23T05:00:26;1.10;99.90
17200;DHT22;8716;52.268;20.968;2023-02-23T05:02:56;1.10;99.90
17200;DHT22;8716;52.268;20.968;2023-02-23T05:05:24;1.30;99.90
17200;DHT22;8716;52.268;20.968;2023-02-23T05:07:53;1.20;99.90
17200;DHT22;8716;52.268;20.968;2023-02-23T05:10:23;1.20;99.90
17200;DHT22;8716;52.268;20.968;2023-02-23T05:12:51;1.20;99.90
17200;DHT22;8716;52.268;20.968;2023-02-23T05:15:19;1.30;99.90
17200;DHT22;8716;52.268;20.968;2023-02-23T05:17:48;1.20;99.90
17200;DHT22;8716;52.268;20.968;2023-02-23T05:20:16;1.20;99.90
17200;DHT22;8716;52.268;20.968;2023-02-23T05:22:44;1.20;99.90
17200;DHT22;8716;52.268;20.968;2023-02-23T05:25:15;1.20;99.90
17200;DHT22;8716;52.268;20.968;2023-02-23T05:27:45;1.20;99.90
17200;DHT22;8716;52.268;20.968;2023-02-23T05:30:13;1.20;99.90
17200;DHT22;8716;52.268;20.968;2023-02-23T05:32:41;1.20;99.90
17200;DHT22;8716;52.268;20.968;2023-02-23T05:35:10;1.20;99.90
17200;DHT22;8716;52.268;20.968;2023-02-23T05:37:41;1.10;99.90
17200;DHT22;8716;52.268;20.968;2023-02-23T05:40:11;1.20;99.90
17200;DHT22;8716;52.268;20.968;2023-02-23T05:42:39;1.20;99.90
17200;DHT22;8716;52.268;20.968;2023-02-23T05:45:09;1.20;99.90
17200;DHT22;8716;52.268;20.968;2023-02-23T05:47:38;1.20;99.90
17200;DHT22;8716;52.268;20.968;2023-02-23T05:50:08;1.20;99.90
17200;DHT22;8716;52.268;20.968;2023-02-23T05:52:38;1.20;99.90
17200;DHT22;8716;52.268;20.968;2023-02-23T05:55:09;1.20;99.90
17200;DHT22;8716;52.268;20.968;2023-02-23T05:57:38;1.10;99.90
17200;DHT22;8716;52.268;20.968;2023-02-23T06:00:12;1.10;99.90
17200;DHT22;8716;52.268;20.968;2023-02-23T06:02:41;1.20;99.90
17200;DHT22;8716;52.268;20.968;2023-02-23T06:05:10;1.30;99.90
17200;DHT22;8716;52.268;20.968;2023-02-23T06:07:39;1.30;99.90
17200;DHT22;8716;52.268;20.968;2023-02-23T06:10:08;1.30;99.90
17200;DHT22;8716;52.268;20.968;2023-02-23T06:12:36;1.30;99.90
17200;DHT22;8716;52.268;20.968;2023-02-23T06:15:08;1.30;99.90
17200;DHT22;8716;52.268;20.968;2023-02-23T06:17:38;1.40;99.90
17200;DHT22;8716;52.268;20.968;2023-02-23T06:20:06;1.40;99.90
17200;DHT22;8716;52.268;20.968;2023-02-23T06:22:35;1.40;99.90
17200;DHT22;8716;52.268;20.968;2023-02-23T06:25:03;1.50;99.90
17200;DHT22;8716;52.268;20.968;2023-02-23T06:27:38;1.40;99.90
17200;DHT22;8716;52.268;20.968;2023-02-23T06:30:09;1.50;99.90
17200;DHT22;8716;52.268;20.968;2023-02-23T06:32:42;1.50;99.90
17200;DHT22;8716;52.268;20.968;2023-02-23T06:35:14;1.70;99.90
17200;DHT22;8716;52.268;20.968;2023-02-23T06:37:43;1.70;99.90
17200;DHT22;8716;52.268;20.968;2023-02-23T06:40:12;1.70;99.90
17200;DHT22;8716;52.268;20.968;2023-02-23T06:42:40;1.70;99.90
17200;DHT22;8716;52.268;20.968;2023-02-23T06:45:09;1.80;99.90
17200;DHT22;8716;52.268;20.968;2023-02-23T06:47:39;1.80;99.90
17200;DHT22;8716;52.268;20.968;2023-02-23T06:50:10;1.80;99.90
17200;DHT22;8716;52.268;20.968;2023-02-23T06:52:39;1.80;99.90
17200;DHT22;8716;52.268;20.968;2023-02-23T06:55:09;1.90;99.90
17200;DHT22;8716;52.268;20.968;2023-02-23T06:57:39;1.90;99.90
17200;DHT22;8716;52.268;20.968;2023-02-23T07:00:14;2.00;99.90
17200;DHT22;8716;52.268;20.968;2023-02-23T07:02:43;2.00;99.90
17200;DHT22;8716;52.268;20.968;2023-02-23T07:05:13;2.10;99.90
17200;DHT22;8716;52.268;20.968;2023-02-23T07:07:42;2.20;99.90
17200;DHT22;8716;52.268;20.968;2023-02-23T07:10:12;2.30;99.90
17200;DHT22;8716;52.268;20.968;2023-02-23T07:12:40;2.20;99.90
17200;DHT22;8716;52.268;20.968;2023-02-23T07:15:09;2.30;99.90
17200;DHT22;8716;52.268;20.968;2023-02-23T07:17:37;2.30;99.90
17200;DHT22;8716;52.268;20.968;2023-02-23T07:20:06;2.40;99.90
17200;DHT22;8716;52.268;20.968;2023-02-23T07:22:36;2.50;99.90
17200;DHT22;8716;52.268;20.968;2023-02-23T07:25:06;2.60;99.90
17200;DHT22;8716;52.268;20.968;2023-02-23T07:27:35;2.70;99.90
17200;DHT22;8716;52.268;20.968;2023-02-23T07:30:05;2.70;99.90
17200;DHT22;8716;52.268;20.968;2023-02-23T07:32:33;2.70;99.90
17200;DHT22;8716;52.268;20.968;2023-02-23T07:35:06;2.80;99.90
17200;DHT22;8716;52.268;20.968;2023-02-23T07:37:36;3.00;99.90
17200;DHT22;8716;52.268;20.968;2023-02-23T07:40:05;3.10;99.90
17200;DHT22;8716;52.268;20.968;2023-02-23T07:42:33;3.20;99.90
17200;DHT22;8716;52.268;20.968;2023-02-23T07:45:03;3.30;99.90
17200;DHT22;8716;52.268;20.968;2023-02-23T07:47:32;3.50;99.90
17200;DHT22;8716;52.268;20.968;2023-02-23T07:50:01;3.50;99.90
17200;DHT22;8716;52.268;20.968;2023-02-23T07:52:29;3.50;99.90
17200;DHT22;8716;52.268;20.968;2023-02-23T07:54:59;3.50;99.90
17200;DHT22;8716;52.268;20.968;2023-02-23T07:57:27;3.50;99.90
17200;DHT22;8716;52.268;20.968;2023-02-23T07:59:55;3.70;99.90
17200;DHT22;8716;52.268;20.968;2023-02-23T08:02:23;3.70;99.90
17200;DHT22;8716;52.268;20.968;2023-02-23T08:04:52;3.90;99.90
17200;DHT22;8716;52.268;20.968;2023-02-23T08:07:21;3.90;99.90
17200;DHT22;8716;52.268;20.968;2023-02-23T08:09:52;4.10;99.90
17200;DHT22;8716;52.268;20.968;2023-02-23T08:12:22;4.20;99.90
17200;DHT22;8716;52.268;20.968;2023-02-23T08:14:50;4.30;99.90
17200;DHT22;8716;52.268;20.968;2023-02-23T08:17:19;4.50;99.90
17200;DHT22;8716;52.268;20.968;2023-02-23T08:19:47;4.60;99.90
17200;DHT22;8716;52.268;20.968;2023-02-23T08:22:16;4.80;99.90
17200;DHT22;8716;52.268;20.968;2023-02-23T08:24:44;4.90;99.90
17200;DHT22;8716;52.268;20.968;2023-02-23T08:27:12;5.10;99.90
17200;DHT22;8716;52.268;20.968;2023-02-23T08:29:42;5.30;99.90
17200;DHT22;8716;52.268;20.968;2023-02-23T08:32:10;5.40;99.90
17200;DHT22;8716;52.268;20.968;2023-02-23T08:34:42;5.40;99.90
17200;DHT22;8716;52.268;20.968;2023-02-23T08:37:11;5.50;99.90
17200;DHT22;8716;52.268;20.968;2023-02-23T08:39:39;5.50;99.90
17200;DHT22;8716;52.268;20.968;2023-02-23T08:42:09;5.50;99.90
17200;DHT22;8716;52.268;20.968;2023-02-23T08:44:37;5.50;99.90
17200;DHT22;8716;52.268;20.968;2023-02-23T08:47:09;5.60;99.90
17200;DHT22;8716;52.268;20.968;2023-02-23T08:49:40;5.80;99.90
17200;DHT22;8716;52.268;20.968;2023-02-23T08:52:08;6.00;99.90
17200;DHT22;8716;52.268;20.968;2023-02-23T08:54:36;6.40;99.90
17200;DHT22;8716;52.268;20.968;2023-02-23T08:57:04;6.90;99.90
17200;DHT22;8716;52.268;20.968;2023-02-23T08:59:33;7.30;99.90
17200;DHT22;8716;52.268;20.968;2023-02-23T09:02:01;7.70;99.90
17200;DHT22;8716;52.268;20.968;2023-02-23T09:04:31;7.90;99.90
17200;DHT22;8716;52.268;20.968;2023-02-23T09:07:01;8.20;99.90
17200;DHT22;8716;52.268;20.968;2023-02-23T09:09:29;8.30;99.90
17200;DHT22;8716;52.268;20.968;2023-02-23T09:11:58;8.60;99.90
17200;DHT22;8716;52.268;20.968;2023-02-23T09:14:26;8.90;99.90
17200;DHT22;8716;52.268;20.968;2023-02-23T09:16:55;9.50;99.90
17200;DHT22;8716;52.268;20.968;2023-02-23T09:19:24;10.40;99.90
17200;DHT22;8716;52.268;20.968;2023-02-23T09:21:56;10.90;99.90
17200;DHT22;8716;52.268;20.968;2023-02-23T09:24:24;11.50;99.90
17200;DHT22;8716;52.268;20.968;2023-02-23T09:26:52;12.10;98.50
17200;DHT22;8716;52.268;20.968;2023-02-23T09:29:21;13.00;97.90
17200;DHT22;8716;52.268;20.968;2023-02-23T09:31:49;14.10;94.10
17200;DHT22;8716;52.268;20.968;2023-02-23T09:34:19;14.70;91.80
17200;DHT22;8716;52.268;20.968;2023-02-23T09:36:49;14.80;89.20
17200;DHT22;8716;52.268;20.968;2023-02-23T09:39:19;14.90;87.60
17200;DHT22;8716;52.268;20.968;2023-02-23T09:42:19;15.00;86.50
17200;DHT22;8716;52.268;20.968;2023-02-23T09:45:05;14.90;85.40
17200;DHT22;8716;52.268;20.968;2023-02-23T09:47:46;14.60;85.00
17200;DHT22;8716;52.268;20.968;2023-02-23T09:50:21;14.40;85.40
17200;DHT22;8716;52.268;20.968;2023-02-23T09:52:55;14.30;85.60
17200;DHT22;8716;52.268;20.968;2023-02-23T09:55:27;14.10;85.40
17200;DHT22;8716;52.268;20.968;2023-02-23T09:58:01;14.10;85.30
17200;DHT22;8716;52.268;20.968;2023-02-23T10:00:38;14.00;85.40
17200;DHT22;8716;52.268;20.968;2023-02-23T10:03:16;14.40;84.70
17200;DHT22;8716;52.268;20.968;2023-02-23T10:05:48;14.60;83.60
17200;DHT22;8716;52.268;20.968;2023-02-23T10:08:33;15.10;84.80
17200;DHT22;8716;52.268;20.968;2023-02-23T10:11:13;15.50;81.40
17200;DHT22;8716;52.268;20.968;2023-02-23T10:13:50;15.70;79.60
17200;DHT22;8716;52.268;20.968;2023-02-23T10:16:24;15.90;78.70
17200;DHT22;8716;52.268;20.968;2023-02-23T10:18:59;16.00;78.20
17200;DHT22;8716;52.268;20.968;2023-02-23T10:21:37;16.30;77.40
17200;DHT22;8716;52.268;20.968;2023-02-23T10:24:10;16.30;77.40
17200;DHT22;8716;52.268;20.968;2023-02-23T10:26:48;16.70;77.30
17200;DHT22;8716;52.268;20.968;2023-02-23T10:29:48;17.00;75.70
17200;DHT22;8716;52.268;20.968;2023-02-23T10:32:23;17.40;75.80
17200;DHT22;8716;52.268;20.968;2023-02-23T10:34:54;17.80;74.20
17200;DHT22;8716;52.268;20.968;2023-02-23T10:37:24;18.20;72.20
17200;DHT22;8716;52.268;20.968;2023-02-23T10:39:56;18.30;71.90
17200;DHT22;8716;52.268;20.968;2023-02-23T10:42:26;18.30;70.20
17200;DHT22;8716;52.268;20.968;2023-02-23T10:44:56;18.20;72.20
17200;DHT22;8716;52.268;20.968;2023-02-23T10:47:26;18.50;70.40
17200;DHT22;8716;52.268;20.968;2023-02-23T10:49:56;18.90;70.20
17200;DHT22;8716;52.268;20.968;2023-02-23T10:52:30;18.90;69.20
17200;DHT22;8716;52.268;20.968;2023-02-23T10:55:03;18.40;68.50
17200;DHT22;8716;52.268;20.968;2023-02-23T10:57:37;18.00;69.50
17200;DHT22;8716;52.268;20.968;2023-02-23T11:00:25;18.30;69.30
17200;DHT22;8716;52.268;20.968;2023-02-23T11:03:00;18.20;69.50
17200;DHT22;8716;52.268;20.968;2023-02-23T11:05:34;18.10;69.50
17200;DHT22;8716;52.268;20.968;2023-02-23T11:08:21;18.00;68.30
17200;DHT22;8716;52.268;20.968;2023-02-23T11:11:10;17.70;69.10
17200;DHT22;8716;52.268;20.968;2023-02-23T11:13:48;17.50;70.10
17200;DHT22;8716;52.268;20.968;2023-02-23T11:16:18;17.50;70.20
17200;DHT22;8716;52.268;20.968;2023-02-23T11:18:51;17.20;70.20
17200;DHT22;8716;52.268;20.968;2023-02-23T11:21:24;16.70;70.50
17200;DHT22;8716;52.268;20.968;2023-02-23T11:23:56;16.40;72.50
17200;DHT22;8716;52.268;20.968;2023-02-23T11:26:32;16.10;72.70
17200;DHT22;8716;52.268;20.968;2023-02-23T11:29:13;15.60;73.70
17200;DHT22;8716;52.268;20.968;2023-02-23T11:31:47;14.80;74.50
17200;DHT22;8716;52.268;20.968;2023-02-23T11:34:27;14.40;75.90
17200;DHT22;8716;52.268;20.968;2023-02-23T11:37:01;13.50;77.10
17200;DHT22;8716;52.268;20.968;2023-02-23T11:39:30;13.00;78.70
17200;DHT22;8716;52.268;20.968;2023-02-23T11:42:18;12.70;79.80
17200;DHT22;8716;52.268;20.968;2023-02-23T11:45:00;12.40;80.70
17200;DHT22;8716;52.268;20.968;2023-02-23T11:47:31;12.00;81.60
17200;DHT22;8716;52.268;20.968;2023-02-23T11:50:06;11.80;82.60
17200;DHT22;8716;52.268;20.968;2023-02-23T11:52:35;11.50;83.10
17200;DHT22;8716;52.268;20.968;2023-02-23T11:55:06;11.20;83.60
17200;DHT22;8716;52.268;20.968;2023-02-23T11:57:34;10.90;84.90
17200;DHT22;8716;52.268;20.968;2023-02-23T12:00:11;10.60;86.00
17200;DHT22;8716;52.268;20.968;2023-02-23T12:02:47;10.50;86.70
17200;DHT22;8716;52.268;20.968;2023-02-23T12:05:20;10.40;87.20
17200;DHT22;8716;52.268;20.968;2023-02-23T12:07:55;10.30;87.70
17200;DHT22;8716;52.268;20.968;2023-02-23T12:10:28;10.20;88.00
17200;DHT22;8716;52.268;20.968;2023-02-23T12:13:04;9.90;88.80
17200;DHT22;8716;52.268;20.968;2023-02-23T12:15:42;9.90;89.70
17200;DHT22;8716;52.268;20.968;2023-02-23T12:18:28;9.90;90.20
17200;DHT22;8716;52.268;20.968;2023-02-23T12:21:17;9.70;90.50
17200;DHT22;8716;52.268;20.968;2023-02-23T12:23:48;9.70;90.70
17200;DHT22;8716;52.268;20.968;2023-02-23T12:26:22;9.70;90.70
17200;DHT22;8716;52.268;20.968;2023-02-23T12:28:55;9.60;90.80
17200;DHT22;8716;52.268;20.968;2023-02-23T12:31:34;9.40;90.90
17200;DHT22;8716;52.268;20.968;2023-02-23T12:34:12;9.40;91.00
17200;DHT22;8716;52.268;20.968;2023-02-23T12:36:45;9.30;91.30
17200;DHT22;8716;52.268;20.968;2023-02-23T12:39:23;9.20;91.50
17200;DHT22;8716;52.268;20.968;2023-02-23T12:41:59;9.10;91.70
17200;DHT22;8716;52.268;20.968;2023-02-23T12:44:35;9.00;91.90
17200;DHT22;8716;52.268;20.968;2023-02-23T12:47:15;9.00;92.10
17200;DHT22;8716;52.268;20.968;2023-02-23T12:49:51;9.10;92.30
17200;DHT22;8716;52.268;20.968;2023-02-23T12:52:27;9.10;92.50
17200;DHT22;8716;52.268;20.968;2023-02-23T12:54:56;9.00;92.50
17200;DHT22;8716;52.268;20.968;2023-02-23T12:57:31;9.00;92.60
17200;DHT22;8716;52.268;20.968;2023-02-23T13:00:26;9.00;92.70
17200;DHT22;8716;52.268;20.968;2023-02-23T13:06:12;9.00;93.00
17200;DHT22;8716;52.268;20.968;2023-02-23T13:08:55;8.90;93.10
17200;DHT22;8716;52.268;20.968;2023-02-23T13:11:45;8.90;93.30
17200;DHT22;8716;52.268;20.968;2023-02-23T13:14:21;8.80;93.40
17200;DHT22;8716;52.268;20.968;2023-02-23T13:16:56;8.70;93.50
17200;DHT22;8716;52.268;20.968;2023-02-23T13:19:32;8.60;93.70
17200;DHT22;8716;52.268;20.968;2023-02-23T13:22:17;8.50;94.00
17200;DHT22;8716;52.268;20.968;2023-02-23T13:24:50;8.30;94.30
17200;DHT22;8716;52.268;20.968;2023-02-23T13:27:24;8.30;94.60
17200;DHT22;8716;52.268;20.968;2023-02-23T13:29:57;8.30;94.90
17200;DHT22;8716;52.268;20.968;2023-02-23T13:32:27;8.30;95.00
17200;DHT22;8716;52.268;20.968;2023-02-23T13:35:00;8.40;95.20
17200;DHT22;8716;52.268;20.968;2023-02-23T13:37:32;8.50;95.40
17200;DHT22;8716;52.268;20.968;2023-02-23T13:40:15;8.50;95.40
17200;DHT22;8716;52.268;20.968;2023-02-23T13:42:54;8.50;95.40
17200;DHT22;8716;52.268;20.968;2023-02-23T13:45:37;8.50;95.70
17200;DHT22;8716;52.268;20.968;2023-02-23T13:48:18;8.50;95.70
17200;DHT22;8716;52.268;20.968;2023-02-23T13:50:58;8.50;95.70
17200;DHT22;8716;52.268;20.968;2023-02-23T13:53:37;8.40;96.20
17200;DHT22;8716;52.268;20.968;2023-02-23T13:56:09;8.30;96.10
17200;DHT22;8716;52.268;20.968;2023-02-23T13:58:45;8.30;96.40
17200;DHT22;8716;52.268;20.968;2023-02-23T14:01:15;8.30;96.40
17200;DHT22;8716;52.268;20.968;2023-02-23T14:03:52;8.30;96.50
17200;DHT22;8716;52.268;20.968;2023-02-23T14:06:25;8.20;96.80
17200;DHT22;8716;52.268;20.968;2023-02-23T14:08:57;8.10;97.10
17200;DHT22;8716;52.268;20.968;2023-02-23T14:11:40;8.00;97.20
17200;DHT22;8716;52.268;20.968;2023-02-23T14:14:13;8.00;97.50
17200;DHT22;8716;52.268;20.968;2023-02-23T14:16:43;7.90;97.60
17200;DHT22;8716;52.268;20.968;2023-02-23T14:19:35;7.90;97.70
17200;DHT22;8716;52.268;20.968;2023-02-23T14:22:07;7.80;98.00
17200;DHT22;8716;52.268;20.968;2023-02-23T14:24:37;7.70;98.30
17200;DHT22;8716;52.268;20.968;2023-02-23T14:27:31;7.60;98.50
17200;DHT22;8716;52.268;20.968;2023-02-23T14:30:21;7.60;98.70
17200;DHT22;8716;52.268;20.968;2023-02-23T14:32:51;7.60;98.80
17200;DHT22;8716;52.268;20.968;2023-02-23T14:35:42;7.60;99.00
17200;DHT22;8716;52.268;20.968;2023-02-23T14:38:16;7.60;99.30
17200;DHT22;8716;52.268;20.968;2023-02-23T14:40:54;7.60;99.40
17200;DHT22;8716;52.268;20.968;2023-02-23T14:43:41;7.60;99.60
17200;DHT22;8716;52.268;20.968;2023-02-23T14:46:22;7.50;99.90
17200;DHT22;8716;52.268;20.968;2023-02-23T14:48:56;7.50;99.90
17200;DHT22;8716;52.268;20.968;2023-02-23T14:51:35;7.50;99.90
17200;DHT22;8716;52.268;20.968;2023-02-23T14:54:19;7.50;99.90
17200;DHT22;8716;52.268;20.968;2023-02-23T14:56:50;7.40;99.90
17200;DHT22;8716;52.268;20.968;2023-02-23T14:59:20;7.40;99.90
17200;DHT22;8716;52.268;20.968;2023-02-23T15:01:49;7.40;99.90
17200;DHT22;8716;52.268;20.968;2023-02-23T15:04:20;7.30;99.90
17200;DHT22;8716;52.268;20.968;2023-02-23T15:06:52;7.30;99.90
17200;DHT22;8716;52.268;20.968;2023-02-23T15:09:29;7.30;99.90
17200;DHT22;8716;52.268;20.968;2023-02-23T15:12:02;7.20;99.90
17200;DHT22;8716;52.268;20.968;2023-02-23T15:14:35;7.20;99.90
17200;DHT22;8716;52.268;20.968;2023-02-23T15:17:04;7.20;99.90
17200;DHT22;8716;52.268;20.968;2023-02-23T15:19:37;7.20;99.90
17200;DHT22;8716;52.268;20.968;2023-02-23T15:22:23;7.20;99.90
17200;DHT22;8716;52.268;20.968;2023-02-23T15:24:55;7.20;99.90
17200;DHT22;8716;52.268;20.968;2023-02-23T15:27:29;7.20;99.90
17200;DHT22;8716;52.268;20.968;2023-02-23T15:30:16;7.20;99.90
17200;DHT22;8716;52.268;20.968;2023-02-23T15:32:44;7.20;99.90
17200;DHT22;8716;52.268;20.968;2023-02-23T15:35:15;7.20;99.90
17200;DHT22;8716;52.268;20.968;2023-02-23T15:37:47;7.20;99.90
17200;DHT22;8716;52.268;20.968;2023-02-23T15:40:36;7.10;99.90
17200;DHT22;8716;52.268;20.968;2023-02-23T15:43:06;7.00;99.90
17200;DHT22;8716;52.268;20.968;2023-02-23T15:45:38;7.00;99.90
17200;DHT22;8716;52.268;20.968;2023-02-23T15:48:12;7.00;99.90
17200;DHT22;8716;52.268;20.968;2023-02-23T15:50:46;7.00;99.90
17200;DHT22;8716;52.268;20.968;2023-02-23T15:53:27;7.00;99.90
17200;DHT22;8716;52.268;20.968;2023-02-23T15:56:00;6.90;99.90
17200;DHT22;8716;52.268;20.968;2023-02-23T15:58:35;6.90;99.90
17200;DHT22;8716;52.268;20.968;2023-02-23T16:01:20;6.80;99.90
17200;DHT22;8716;52.268;20.968;2023-02-23T16:04:06;6.80;99.90
17200;DHT22;8716;52.268;20.968;2023-02-23T16:06:37;6.70;99.90
17200;DHT22;8716;52.268;20.968;2023-02-23T16:09:14;6.70;99.90
17200;DHT22;8716;52.268;20.968;2023-02-23T16:11:53;6.70;99.90
17200;DHT22;8716;52.268;20.968;2023-02-23T16:14:28;6.60;99.90
17200;DHT22;8716;52.268;20.968;2023-02-23T16:16:58;6.60;99.90
17200;DHT22;8716;52.268;20.968;2023-02-23T16:19:38;6.50;99.90
17200;DHT22;8716;52.268;20.968;2023-02-23T16:22:18;6.50;99.90
17200;DHT22;8716;52.268;20.968;2023-02-23T16:24:55;6.50;99.90
17200;DHT22;8716;52.268;20.968;2023-02-23T16:27:25;6.40;99.90
17200;DHT22;8716;52.268;20.968;2023-02-23T16:29:56;6.40;99.90
17200;DHT22;8716;52.268;20.968;2023-02-23T16:32:33;6.30;99.90
17200;DHT22;8716;52.268;20.968;2023-02-23T16:35:08;6.30;99.90
17200;DHT22;8716;52.268;20.968;2023-02-23T16:37:56;6.20;99.90
17200;DHT22;8716;52.268;20.968;2023-02-23T16:40:26;6.20;99.90